Time;durP1;ratioP1;P1;durP2;ratioP2;P2;SDS_P1;SDS_P2;PMS_P1;PMS_P2;Temp;Humidity;BMP_temperature;BMP_pressure;BME280_temperature;BME280_humidity;BME280_pressure;Samples;Min_cycle;Max_cycle;Signal;HPM_P1;HPM_P2
2022/08/26 00:01:47;;;;;;;15.15;8.50;;;;;;;;;;5087639;28;20039;-66
2022/08/26 00:04:13;;;;;;;15.93;8.45;;;;;;;;;;5078432;28;20036;-66
2022/08/26 00:06:38;;;;;;;17.60;8.82;;;;;;;;;;5088876;28;20036;-67
2022/08/26 00:09:03;;;;;;;18.00;8.52;;;;;;;;;;5088248;28;20020;-66
2022/08/26 00:11:29;;;;;;;17.30;8.65;;;;;;;;;;5084206;28;20058;-66
2022/08/26 00:13:55;;;;;;;19.02;8.75;;;;;;;;;;5090885;28;20126;-67
2022/08/26 00:16:21;;;;;;;15.93;9.07;;;;;;;;;;5088138;28;20036;-67
2022/08/26 00:18:46;;;;;;;16.50;9.07;;;;;;;;;;5093346;28;20035;-67
2022/08/26 00:21:11;;;;;;;19.83;10.25;;;;;;;;;;5086435;28;20103;-66
2022/08/26 00:23:37;;;;;;;18.08;9.43;;;;;;;;;;5092641;28;20020;-66
2022/08/26 00:26:03;;;;;;;15.18;8.57;;;;;;;;;;5092280;28;20387;-66
2022/08/26 00:28:28;;;;;;;20.75;8.75;;;;;;;;;;5093316;28;20024;-67
2022/08/26 00:30:54;;;;;;;14.57;9.00;;;;;;;;;;5091197;28;20031;-66
2022/08/26 00:33:19;;;;;;;17.10;9.25;;;;;;;;;;5092674;28;20034;-66
2022/08/26 00:35:45;;;;;;;18.40;9.35;;;;;;;;;;5093824;28;20103;-66
2022/08/26 00:38:11;;;;;;;19.45;9.82;;;;;;;;;;5092336;28;20024;-66
2022/08/26 00:40:38;;;;;;;19.77;9.77;;;;;;;;;;5092666;28;20035;-66
2022/08/26 00:43:04;;;;;;;17.58;10.20;;;;;;;;;;5090900;28;20081;-66
2022/08/26 00:45:36;;;;;;;17.98;10.07;;;;;;;;;;5091507;28;20103;-66
2022/08/26 00:48:04;;;;;;;20.13;9.60;;;;;;;;;;5079617;28;20138;-66
2022/08/26 00:50:36;;;;;;;22.05;9.95;;;;;;;;;;5093132;28;20044;-66
2022/08/26 00:53:03;;;;;;;19.30;10.23;;;;;;;;;;5086761;28;20056;-66
2022/08/26 00:55:28;;;;;;;20.67;10.65;;;;;;;;;;5086480;28;20017;-66
2022/08/26 00:57:54;;;;;;;18.52;10.73;;;;;;;;;;5093208;28;20035;-66
2022/08/26 01:00:23;;;;;;;19.15;10.48;;;;;;;;;;5092433;28;20032;-66
2022/08/26 01:02:48;;;;;;;20.20;10.63;;;;;;;;;;5087240;28;20028;-66
2022/08/26 01:05:14;;;;;;;22.65;10.93;;;;;;;;;;5091814;28;20102;-67
2022/08/26 01:07:39;;;;;;;20.60;11.50;;;;;;;;;;5094188;28;20434;-66
2022/08/26 01:10:10;;;;;;;21.25;10.98;;;;;;;;;;5087926;28;20012;-66
2022/08/26 01:12:39;;;;;;;17.60;11.47;;;;;;;;;;5085843;28;20171;-66
2022/08/26 01:15:04;;;;;;;29.63;11.52;;;;;;;;;;5082681;28;20376;-66
2022/08/26 01:17:30;;;;;;;17.23;10.85;;;;;;;;;;5089936;28;20020;-66
2022/08/26 01:19:59;;;;;;;23.35;11.05;;;;;;;;;;5088681;28;20035;-66
2022/08/26 01:22:24;;;;;;;20.90;11.82;;;;;;;;;;5088529;28;20024;-66
2022/08/26 01:24:49;;;;;;;17.83;11.85;;;;;;;;;;5091536;28;20047;-66
2022/08/26 01:27:17;;;;;;;25.55;12.05;;;;;;;;;;5092486;28;20623;-66
2022/08/26 01:29:43;;;;;;;21.58;11.43;;;;;;;;;;5091711;28;20476;-66
2022/08/26 01:32:10;;;;;;;22.88;11.85;;;;;;;;;;5089480;28;20100;-66
2022/08/26 01:34:36;;;;;;;21.73;11.27;;;;;;;;;;5089749;28;20086;-66
2022/08/26 01:37:02;;;;;;;21.63;11.43;;;;;;;;;;5094913;28;20032;-66
2022/08/26 01:39:27;;;;;;;23.67;12.05;;;;;;;;;;5090038;28;20357;-66
2022/08/26 01:41:55;;;;;;;22.60;11.85;;;;;;;;;;5092252;28;20023;-67
2022/08/26 01:44:22;;;;;;;18.38;11.38;;;;;;;;;;5091739;28;20042;-66
2022/08/26 01:46:48;;;;;;;18.10;11.07;;;;;;;;;;5089563;28;20036;-66
2022/08/26 01:49:14;;;;;;;20.60;11.10;;;;;;;;;;5089736;28;20065;-66
2022/08/26 01:51:39;;;;;;;21.85;11.10;;;;;;;;;;5092905;28;20017;-67
2022/08/26 01:54:06;;;;;;;18.45;10.95;;;;;;;;;;5087387;28;20075;-66
2022/08/26 01:56:32;;;;;;;19.52;11.70;;;;;;;;;;5091012;28;20147;-67
2022/08/26 01:58:59;;;;;;;22.00;11.43;;;;;;;;;;5090235;28;20531;-66
2022/08/26 02:01:25;;;;;;;18.67;11.35;;;;;;;;;;5073469;28;20024;-66
2022/08/26 02:03:56;;;;;;;24.00;11.43;;;;;;;;;;5087851;28;20031;-67
2022/08/26 02:06:22;;;;;;;18.08;10.80;;;;;;;;;;5073199;28;20024;-66
2022/08/26 02:08:49;;;;;;;20.75;11.25;;;;;;;;;;5083179;28;20034;-66
2022/08/26 02:11:15;;;;;;;27.83;11.68;;;;;;;;;;5081542;28;20023;-66
2022/08/26 02:13:42;;;;;;;30.95;12.18;;;;;;;;;;5091661;28;20107;-66
2022/08/26 02:16:07;;;;;;;18.10;11.35;;;;;;;;;;5089433;28;20055;-66
2022/08/26 02:18:35;;;;;;;19.98;11.85;;;;;;;;;;5090663;28;20032;-67
2022/08/26 02:21:00;;;;;;;27.15;12.85;;;;;;;;;;5087202;28;20073;-67
2022/08/26 02:23:25;;;;;;;28.45;12.98;;;;;;;;;;5090788;28;20107;-66
2022/08/26 02:26:03;;;;;;;20.95;12.18;;;;;;;;;;5089421;28;20020;-66
2022/08/26 02:28:31;;;;;;;24.63;12.52;;;;;;;;;;5090220;28;20468;-67
2022/08/26 02:30:56;;;;;;;27.33;13.13;;;;;;;;;;5091155;28;20429;-66
2022/08/26 02:33:22;;;;;;;21.20;12.27;;;;;;;;;;5088637;28;20027;-67
2022/08/26 02:35:47;;;;;;;22.90;12.93;;;;;;;;;;5091557;28;20029;-67
2022/08/26 02:38:12;;;;;;;30.20;12.88;;;;;;;;;;5090205;28;20027;-66
2022/08/26 02:40:39;;;;;;;30.73;13.32;;;;;;;;;;5086923;28;20091;-66
2022/08/26 02:43:05;;;;;;;31.05;12.73;;;;;;;;;;5089318;28;20106;-67
2022/08/26 02:45:31;;;;;;;25.00;13.60;;;;;;;;;;5088837;28;20100;-66
2022/08/26 02:47:57;;;;;;;29.17;13.77;;;;;;;;;;5086535;28;20046;-67
2022/08/26 02:50:22;;;;;;;24.23;13.30;;;;;;;;;;5082926;28;20046;-67
2022/08/26 02:52:48;;;;;;;22.00;13.25;;;;;;;;;;5088470;28;20012;-66
2022/08/26 02:55:13;;;;;;;24.13;13.88;;;;;;;;;;5086080;28;20020;-67
2022/08/26 02:57:38;;;;;;;24.05;14.88;;;;;;;;;;5090658;28;20089;-66
2022/08/26 03:00:06;;;;;;;20.90;14.05;;;;;;;;;;5086861;28;20031;-66
2022/08/26 03:02:32;;;;;;;22.98;13.68;;;;;;;;;;5090292;28;20027;-66
2022/08/26 03:04:57;;;;;;;25.45;14.32;;;;;;;;;;5087059;28;20035;-66
2022/08/26 03:07:23;;;;;;;23.45;14.90;;;;;;;;;;5093617;28;20077;-67
2022/08/26 03:09:48;;;;;;;25.33;14.73;;;;;;;;;;5090109;28;20054;-66
2022/08/26 03:12:13;;;;;;;19.95;13.60;;;;;;;;;;5090160;28;20043;-67
2022/08/26 03:14:39;;;;;;;24.10;14.60;;;;;;;;;;5090386;28;20039;-66
2022/08/26 03:17:04;;;;;;;26.73;14.98;;;;;;;;;;5090609;28;20028;-67
2022/08/26 03:19:30;;;;;;;26.02;15.30;;;;;;;;;;5090143;28;20031;-66
2022/08/26 03:21:56;;;;;;;27.38;14.50;;;;;;;;;;5089286;28;20088;-66
2022/08/26 03:24:21;;;;;;;23.95;15.15;;;;;;;;;;5087572;28;20040;-66
2022/08/26 03:26:46;;;;;;;30.02;15.73;;;;;;;;;;5082965;28;20036;-67
2022/08/26 03:31:56;;;;;;;25.70;15.77;;;;;;;;;;5090348;28;20546;-67
2022/08/26 03:34:21;;;;;;;29.13;15.40;;;;;;;;;;5089015;28;20020;-67
2022/08/26 03:36:46;;;;;;;29.92;16.80;;;;;;;;;;5092936;28;20039;-66
2022/08/26 03:39:12;;;;;;;28.52;15.95;;;;;;;;;;5087917;28;20484;-66
2022/08/26 03:41:38;;;;;;;29.77;16.35;;;;;;;;;;5088088;28;20460;-67
2022/08/26 03:44:04;;;;;;;31.33;16.65;;;;;;;;;;5089665;28;20388;-66
2022/08/26 03:46:31;;;;;;;39.15;17.67;;;;;;;;;;5090372;28;20461;-67
2022/08/26 03:48:57;;;;;;;31.80;16.48;;;;;;;;;;5091285;28;20107;-66
2022/08/26 03:51:22;;;;;;;28.45;16.10;;;;;;;;;;5088872;28;20435;-66
2022/08/26 03:53:47;;;;;;;38.03;18.08;;;;;;;;;;5088899;28;20507;-66
2022/08/26 03:56:13;;;;;;;25.50;17.98;;;;;;;;;;5092040;28;20028;-67
2022/08/26 03:58:39;;;;;;;29.75;17.08;;;;;;;;;;5093261;28;20422;-66
2022/08/26 04:01:04;;;;;;;30.42;17.63;;;;;;;;;;5093166;28;20063;-66
2022/08/26 04:06:13;;;;;;;48.60;18.33;;;;;;;;;;5093687;28;20077;-66
2022/08/26 04:08:38;;;;;;;51.03;17.73;;;;;;;;;;5091716;28;20479;-67
2022/08/26 04:11:04;;;;;;;38.53;17.77;;;;;;;;;;5091717;28;20054;-66
2022/08/26 04:13:29;;;;;;;39.83;17.65;;;;;;;;;;5092622;28;20198;-67
2022/08/26 04:15:55;;;;;;;34.67;16.55;;;;;;;;;;5092502;28;20028;-67
2022/08/26 04:18:20;;;;;;;36.40;17.60;;;;;;;;;;5092907;28;20020;-66
2022/08/26 04:20:46;;;;;;;36.03;17.65;;;;;;;;;;5093375;28;20032;-66
2022/08/26 04:23:12;;;;;;;40.70;17.42;;;;;;;;;;5085496;28;20020;-66
2022/08/26 04:25:37;;;;;;;31.30;17.63;;;;;;;;;;5089957;28;20111;-66
2022/08/26 04:28:03;;;;;;;38.90;18.30;;;;;;;;;;5092009;28;20159;-66
2022/08/26 04:30:28;;;;;;;33.47;19.80;;;;;;;;;;5092004;28;20150;-66
2022/08/26 04:32:53;;;;;;;28.45;18.80;;;;;;;;;;5093157;28;20028;-67
2022/08/26 04:35:18;;;;;;;34.53;19.63;;;;;;;;;;5083898;28;20028;-66
2022/08/26 04:37:43;;;;;;;37.83;21.27;;;;;;;;;;5091833;28;20059;-66
2022/08/26 04:40:09;;;;;;;38.42;23.52;;;;;;;;;;5091186;28;20062;-66
2022/08/26 04:42:34;;;;;;;36.40;23.38;;;;;;;;;;5091839;28;20029;-66
2022/08/26 04:45:00;;;;;;;36.33;23.13;;;;;;;;;;5092964;28;20505;-67
2022/08/26 04:47:25;;;;;;;36.50;22.77;;;;;;;;;;5074836;28;20039;-67
2022/08/26 04:49:53;;;;;;;36.35;23.80;;;;;;;;;;5081110;28;20047;-67
2022/08/26 04:52:19;;;;;;;38.60;25.27;;;;;;;;;;5089763;28;20016;-67
2022/08/26 04:54:44;;;;;;;38.33;24.90;;;;;;;;;;5088678;28;20034;-67
2022/08/26 04:57:09;;;;;;;36.35;23.45;;;;;;;;;;5090853;28;20023;-67
2022/08/26 04:59:34;;;;;;;33.35;23.45;;;;;;;;;;5092469;28;20059;-67
2022/08/26 05:02:00;;;;;;;38.25;23.70;;;;;;;;;;5089074;28;20028;-66
2022/08/26 05:04:25;;;;;;;33.22;22.55;;;;;;;;;;5089172;28;20032;-67
2022/08/26 05:06:54;;;;;;;40.28;23.50;;;;;;;;;;5088009;28;20028;-66
2022/08/26 05:09:19;;;;;;;40.72;23.08;;;;;;;;;;5088942;28;20024;-67
2022/08/26 05:11:44;;;;;;;35.33;22.33;;;;;;;;;;5087913;28;20035;-66
2022/08/26 05:14:10;;;;;;;33.08;20.90;;;;;;;;;;5079674;28;20024;-67
2022/08/26 05:16:36;;;;;;;37.05;20.98;;;;;;;;;;5082948;28;20031;-66
2022/08/26 05:19:02;;;;;;;35.83;19.88;;;;;;;;;;5086986;28;20036;-67
2022/08/26 05:21:27;;;;;;;33.45;20.10;;;;;;;;;;5087363;28;20028;-67
2022/08/26 05:23:56;;;;;;;32.60;20.25;;;;;;;;;;5081427;28;20025;-67
2022/08/26 05:26:22;;;;;;;33.70;20.75;;;;;;;;;;5084787;28;20032;-67
2022/08/26 05:28:48;;;;;;;31.00;20.08;;;;;;;;;;5089830;28;20028;-67
2022/08/26 05:31:14;;;;;;;30.45;19.25;;;;;;;;;;5091352;28;20028;-67
2022/08/26 05:33:40;;;;;;;31.30;19.40;;;;;;;;;;5088902;28;20024;-67
2022/08/26 05:36:06;;;;;;;30.73;17.67;;;;;;;;;;5090946;28;20027;-67
2022/08/26 05:38:32;;;;;;;27.40;16.92;;;;;;;;;;5095714;28;20031;-67
2022/08/26 05:40:57;;;;;;;32.47;16.33;;;;;;;;;;5088400;28;20479;-67
2022/08/26 05:43:22;;;;;;;32.15;16.05;;;;;;;;;;5085156;28;20023;-66
2022/08/26 05:45:48;;;;;;;23.25;15.63;;;;;;;;;;5091434;28;20020;-67
2022/08/26 05:48:15;;;;;;;23.58;14.98;;;;;;;;;;5083207;28;20021;-67
2022/08/26 05:50:42;;;;;;;26.70;16.17;;;;;;;;;;5085231;28;20027;-67
2022/08/26 05:53:08;;;;;;;25.58;14.90;;;;;;;;;;5090179;28;20394;-67
2022/08/26 05:55:33;;;;;;;27.65;16.20;;;;;;;;;;5091886;28;20034;-67
2022/08/26 05:57:59;;;;;;;23.77;15.18;;;;;;;;;;5091117;28;20354;-67
2022/08/26 06:00:24;;;;;;;26.77;14.43;;;;;;;;;;5092445;28;20482;-67
2022/08/26 06:02:50;;;;;;;25.25;14.90;;;;;;;;;;5092846;28;20031;-67
2022/08/26 06:05:15;;;;;;;20.58;14.70;;;;;;;;;;5092577;28;20059;-67
2022/08/26 06:10:24;;;;;;;25.95;14.23;;;;;;;;;;5090230;28;20031;-67
2022/08/26 06:12:49;;;;;;;24.17;14.02;;;;;;;;;;5091483;28;20016;-67
2022/08/26 06:15:15;;;;;;;21.05;13.07;;;;;;;;;;5073908;28;20031;-67
2022/08/26 06:17:40;;;;;;;21.50;13.43;;;;;;;;;;5077001;28;20024;-65
2022/08/26 06:20:05;;;;;;;24.40;13.55;;;;;;;;;;5086014;28;20028;-65
2022/08/26 06:27:58;;;;;;;30.92;12.70;;;;;;;;;;5091382;28;20023;-64
2022/08/26 06:30:24;;;;;;;23.52;11.93;;;;;;;;;;5087207;28;20024;-65
2022/08/26 06:32:49;;;;;;;19.13;12.82;;;;;;;;;;5092083;28;20020;-65
2022/08/26 06:35:14;;;;;;;22.20;13.23;;;;;;;;;;5091893;28;20009;-65
2022/08/26 06:37:41;;;;;;;23.52;13.05;;;;;;;;;;5095223;28;20023;-65
2022/08/26 06:40:07;;;;;;;22.90;12.18;;;;;;;;;;5091430;28;20452;-65
2022/08/26 06:42:32;;;;;;;27.48;12.20;;;;;;;;;;5091731;28;20016;-65
2022/08/26 06:44:58;;;;;;;25.48;11.80;;;;;;;;;;5090231;28;20024;-65
2022/08/26 06:47:23;;;;;;;25.25;11.80;;;;;;;;;;5091901;28;20020;-65
2022/08/26 06:49:49;;;;;;;20.73;11.52;;;;;;;;;;5089869;28;20624;-65
2022/08/26 06:52:15;;;;;;;19.23;10.93;;;;;;;;;;5091843;28;20069;-65
2022/08/26 06:54:42;;;;;;;22.67;11.48;;;;;;;;;;5091813;28;20031;-65
2022/08/26 06:57:07;;;;;;;22.88;10.82;;;;;;;;;;5091775;28;20028;-65
2022/08/26 06:59:32;;;;;;;17.60;10.80;;;;;;;;;;5089818;28;20081;-65
2022/08/26 07:01:58;;;;;;;23.42;11.05;;;;;;;;;;5091392;28;20024;-65
2022/08/26 07:04:23;;;;;;;18.58;11.23;;;;;;;;;;5089053;28;20074;-64
2022/08/26 07:06:50;;;;;;;22.35;11.25;;;;;;;;;;5091640;28;20468;-65
2022/08/26 07:09:16;;;;;;;18.30;10.48;;;;;;;;;;5088575;28;20122;-65
2022/08/26 07:11:41;;;;;;;20.10;10.25;;;;;;;;;;5091451;28;20093;-65
2022/08/26 07:14:06;;;;;;;18.92;10.07;;;;;;;;;;5089719;28;20024;-65
2022/08/26 07:16:32;;;;;;;20.92;10.00;;;;;;;;;;5091489;28;20012;-65
2022/08/26 07:18:57;;;;;;;21.80;10.35;;;;;;;;;;5090228;28;20024;-65
2022/08/26 07:21:23;;;;;;;22.02;10.43;;;;;;;;;;5090355;28;20032;-65
2022/08/26 07:23:49;;;;;;;14.77;10.07;;;;;;;;;;5091313;28;20074;-65
2022/08/26 07:26:16;;;;;;;19.60;11.13;;;;;;;;;;5091202;28;20023;-65
2022/08/26 07:28:42;;;;;;;15.15;10.68;;;;;;;;;;5089647;28;20103;-65
2022/08/26 07:31:08;;;;;;;18.52;10.88;;;;;;;;;;5089490;28;20135;-65
2022/08/26 07:33:34;;;;;;;24.35;11.98;;;;;;;;;;5090859;28;20020;-65
2022/08/26 07:35:59;;;;;;;26.95;13.30;;;;;;;;;;5090765;28;20029;-65
2022/08/26 07:38:25;;;;;;;24.95;12.90;;;;;;;;;;5099657;28;20011;-65
2022/08/26 07:40:50;;;;;;;24.77;12.85;;;;;;;;;;5088399;28;20050;-65
2022/08/26 07:43:17;;;;;;;28.17;13.07;;;;;;;;;;5090881;28;20077;-65
2022/08/26 07:45:42;;;;;;;20.98;13.20;;;;;;;;;;5089834;28;20472;-65
2022/08/26 07:48:07;;;;;;;22.55;13.50;;;;;;;;;;5091165;28;20108;-64
2022/08/26 07:50:33;;;;;;;23.42;13.93;;;;;;;;;;5089770;28;20020;-64
2022/08/26 07:53:00;;;;;;;25.17;13.45;;;;;;;;;;5090903;28;20023;-65
2022/08/26 07:55:26;;;;;;;28.42;13.75;;;;;;;;;;5093456;28;20028;-65
2022/08/26 07:57:52;;;;;;;27.40;13.25;;;;;;;;;;5091191;28;20039;-65
2022/08/26 08:00:21;;;;;;;23.42;13.25;;;;;;;;;;5089245;28;20536;-65
2022/08/26 08:02:47;;;;;;;22.37;13.17;;;;;;;;;;5090865;28;20430;-65
2022/08/26 08:05:14;;;;;;;26.02;14.30;;;;;;;;;;5090645;28;20040;-64
2022/08/26 08:07:39;;;;;;;22.02;14.52;;;;;;;;;;5090808;28;20716;-65
2022/08/26 08:10:06;;;;;;;25.10;14.75;;;;;;;;;;5089625;28;20103;-64
2022/08/26 08:12:31;;;;;;;24.88;16.38;;;;;;;;;;5090801;28;20036;-65
2022/08/26 08:14:57;;;;;;;28.08;16.90;;;;;;;;;;5088913;28;20031;-64
2022/08/26 08:17:22;;;;;;;29.35;17.48;;;;;;;;;;5091002;28;20047;-65
2022/08/26 08:19:47;;;;;;;25.23;17.58;;;;;;;;;;5090470;28;20051;-65
2022/08/26 08:22:12;;;;;;;27.98;17.45;;;;;;;;;;5089147;28;20020;-64
2022/08/26 08:24:38;;;;;;;27.15;16.88;;;;;;;;;;5090416;28;20028;-64
2022/08/26 08:27:03;;;;;;;25.35;15.57;;;;;;;;;;5090827;28;20028;-64
2022/08/26 08:29:28;;;;;;;28.77;16.33;;;;;;;;;;5088935;28;20507;-64
2022/08/26 08:31:54;;;;;;;23.15;15.45;;;;;;;;;;5074955;28;20047;-64
2022/08/26 08:34:20;;;;;;;22.13;15.18;;;;;;;;;;5090272;28;20107;-65
2022/08/26 08:36:45;;;;;;;23.88;14.43;;;;;;;;;;5090716;28;20031;-64
2022/08/26 08:39:11;;;;;;;24.20;14.43;;;;;;;;;;5106743;28;20019;-64
2022/08/26 08:41:43;;;;;;;25.85;14.70;;;;;;;;;;5090869;28;20270;-65
2022/08/26 08:44:15;;;;;;;20.83;14.05;;;;;;;;;;5094561;28;20031;-64
2022/08/26 08:46:41;;;;;;;24.05;13.35;;;;;;;;;;5092700;28;20023;-65
2022/08/26 08:49:07;;;;;;;20.75;13.88;;;;;;;;;;5094074;28;20033;-65
2022/08/26 08:51:44;;;;;;;21.40;13.85;;;;;;;;;;5094348;28;20039;-65
2022/08/26 08:54:09;;;;;;;22.85;14.07;;;;;;;;;;5093898;28;20020;-65
2022/08/26 08:56:40;;;;;;;25.38;13.48;;;;;;;;;;5089594;28;20022;-65
2022/08/26 08:59:05;;;;;;;20.60;13.50;;;;;;;;;;5078025;28;20562;-65
2022/08/26 09:01:38;;;;;;;29.13;14.20;;;;;;;;;;5073955;28;20024;-65
2022/08/26 09:04:12;;;;;;;26.30;13.85;;;;;;;;;;5073514;28;20032;-65
2022/08/26 09:06:37;;;;;;;26.55;13.82;;;;;;;;;;5088355;28;20479;-64
2022/08/26 09:09:03;;;;;;;20.55;13.30;;;;;;;;;;5074648;28;20095;-65
2022/08/26 09:11:29;;;;;;;18.80;12.88;;;;;;;;;;5073279;28;20488;-65
2022/08/26 09:13:54;;;;;;;18.50;12.95;;;;;;;;;;5075506;28;20047;-65
2022/08/26 09:16:22;;;;;;;19.55;12.85;;;;;;;;;;5091107;28;20495;-65
2022/08/26 09:19:03;;;;;;;24.73;13.80;;;;;;;;;;5093196;28;20024;-65
2022/08/26 09:21:30;;;;;;;21.48;12.50;;;;;;;;;;5093190;28;20052;-65
2022/08/26 09:23:55;;;;;;;24.30;12.75;;;;;;;;;;5093523;28;20473;-65
2022/08/26 09:26:25;;;;;;;23.58;13.48;;;;;;;;;;5090071;28;20032;-65
2022/08/26 09:28:55;;;;;;;21.55;12.23;;;;;;;;;;5092596;28;20016;-65
2022/08/26 09:31:21;;;;;;;18.80;11.50;;;;;;;;;;5091624;28;20024;-65
2022/08/26 09:33:46;;;;;;;20.13;11.80;;;;;;;;;;5092978;28;20592;-65
2022/08/26 09:36:21;;;;;;;21.02;11.15;;;;;;;;;;5090958;28;20013;-65
2022/08/26 09:38:46;;;;;;;28.60;11.95;;;;;;;;;;5105608;28;20553;-65
2022/08/26 09:41:32;;;;;;;18.77;10.73;;;;;;;;;;5113367;28;20023;-65
2022/08/26 09:44:03;;;;;;;17.65;10.65;;;;;;;;;;5112112;28;20032;-65
2022/08/26 09:46:28;;;;;;;16.67;10.80;;;;;;;;;;5083748;28;20024;-65
2022/08/26 09:48:54;;;;;;;16.83;10.48;;;;;;;;;;5092621;28;20078;-65
2022/08/26 09:51:22;;;;;;;15.07;10.85;;;;;;;;;;5092814;28;20036;-65
2022/08/26 09:53:58;;;;;;;25.40;10.40;;;;;;;;;;5092206;28;20058;-65
2022/08/26 09:56:24;;;;;;;21.00;11.55;;;;;;;;;;5090718;28;20024;-65
2022/08/26 09:58:49;;;;;;;25.00;15.32;;;;;;;;;;5092358;28;20036;-65
2022/08/26 10:01:24;;;;;;;23.95;15.43;;;;;;;;;;5090913;28;20107;-65
2022/08/26 10:03:50;;;;;;;23.58;15.20;;;;;;;;;;5086044;28;20059;-65
2022/08/26 10:06:15;;;;;;;23.55;13.63;;;;;;;;;;5092473;28;20024;-65
2022/08/26 10:08:42;;;;;;;19.87;12.20;;;;;;;;;;5092432;28;20103;-64
2022/08/26 10:11:18;;;;;;;24.27;14.70;;;;;;;;;;5091714;28;20258;-65
2022/08/26 10:13:47;;;;;;;26.63;15.27;;;;;;;;;;5079284;28;20020;-64
2022/08/26 10:16:21;;;;;;;25.25;15.75;;;;;;;;;;5090911;28;20385;-64
2022/08/26 10:18:52;;;;;;;26.80;16.77;;;;;;;;;;5092367;28;20504;-65
2022/08/26 10:21:24;;;;;;;27.52;15.50;;;;;;;;;;5091833;28;20028;-65
2022/08/26 10:23:50;;;;;;;28.50;14.27;;;;;;;;;;5090309;28;20038;-64
2022/08/26 10:26:25;;;;;;;28.70;13.57;;;;;;;;;;5091954;28;20604;-64
2022/08/26 10:29:12;;;;;;;24.60;17.17;;;;;;;;;;5090907;28;20058;-64
2022/08/26 10:31:53;;;;;;;25.42;15.60;;;;;;;;;;5090278;28;20107;-65
2022/08/26 10:34:19;;;;;;;35.00;18.38;;;;;;;;;;5073598;28;20085;-65
2022/08/26 10:36:56;;;;;;;28.30;17.50;;;;;;;;;;5091627;28;20107;-65
2022/08/26 10:39:28;;;;;;;26.60;16.42;;;;;;;;;;5106788;28;20012;-65
2022/08/26 10:41:55;;;;;;;30.13;17.13;;;;;;;;;;5094124;28;20027;-65
2022/08/26 10:44:22;;;;;;;25.90;16.35;;;;;;;;;;5091627;28;20030;-65
2022/08/26 10:46:51;;;;;;;23.45;15.93;;;;;;;;;;5090346;28;20035;-65
2022/08/26 10:49:16;;;;;;;22.30;14.93;;;;;;;;;;5091734;28;20064;-65
2022/08/26 10:52:08;;;;;;;23.98;14.77;;;;;;;;;;5088234;28;20103;-65
2022/08/26 10:54:39;;;;;;;23.45;15.50;;;;;;;;;;5068226;28;20024;-65
2022/08/26 10:57:13;;;;;;;24.70;14.93;;;;;;;;;;5071054;28;20408;-65
2022/08/26 10:59:45;;;;;;;23.27;15.77;;;;;;;;;;5071602;28;20052;-65
2022/08/26 11:02:10;;;;;;;23.30;16.63;;;;;;;;;;5084571;28;20119;-64
2022/08/26 11:04:41;;;;;;;23.55;14.95;;;;;;;;;;5090638;28;20116;-65
2022/08/26 11:07:06;;;;;;;;;;;;;;;;;;5091734;28;20071;-65
2022/08/26 11:09:42;;;;;;;26.17;16.80;;;;;;;;;;5091293;28;19947;-65
2022/08/26 11:12:08;;;;;;;27.92;17.13;;;;;;;;;;5090387;28;20032;-64
2022/08/26 11:14:34;;;;;;;24.67;15.48;;;;;;;;;;5091458;28;20023;-65
2022/08/26 11:17:00;;;;;;;23.58;15.23;;;;;;;;;;5082250;28;20500;-65
2022/08/26 11:19:29;;;;;;;22.45;14.65;;;;;;;;;;5091321;28;20077;-65
2022/08/26 11:22:05;;;;;;;27.50;16.05;;;;;;;;;;5091000;28;20016;-65
2022/08/26 11:24:40;;;;;;;30.27;14.65;;;;;;;;;;5089091;28;20024;-65
2022/08/26 11:27:24;;;;;;;25.63;14.73;;;;;;;;;;5089182;28;20028;-65
2022/08/26 11:30:02;;;;;;;25.58;14.38;;;;;;;;;;5090851;28;20346;-64
2022/08/26 11:32:47;;;;;;;25.98;14.00;;;;;;;;;;5089143;28;20031;-65
2022/08/26 11:35:15;;;;;;;28.98;15.38;;;;;;;;;;5079795;28;20024;-65
2022/08/26 11:37:41;;;;;;;23.70;12.43;;;;;;;;;;5090845;28;20028;-65
2022/08/26 11:40:08;;;;;;;23.10;13.07;;;;;;;;;;5088214;28;20020;-64
2022/08/26 11:42:50;;;;;;;22.83;12.40;;;;;;;;;;5089898;28;20368;-65
2022/08/26 11:45:38;;;;;;;26.00;14.50;;;;;;;;;;5091116;28;20027;-65
2022/08/26 11:48:28;;;;;;;19.70;13.82;;;;;;;;;;5091077;28;20016;-65
2022/08/26 11:50:54;;;;;;;22.98;13.38;;;;;;;;;;5083987;28;20114;-65
2022/08/26 11:53:19;;;;;;;26.02;13.60;;;;;;;;;;5088635;28;20056;-64
2022/08/26 11:55:45;;;;;;;19.20;13.35;;;;;;;;;;5090747;28;20086;-64
2022/08/26 11:58:11;;;;;;;21.52;11.23;;;;;;;;;;5087429;28;20017;-65
2022/08/26 12:00:42;;;;;;;21.60;11.15;;;;;;;;;;5090631;28;20154;-64
2022/08/26 12:03:08;;;;;;;21.02;10.88;;;;;;;;;;5086169;28;20115;-64
2022/08/26 12:05:42;;;;;;;20.05;10.10;;;;;;;;;;5088305;28;20158;-65
2022/08/26 12:08:08;;;;;;;22.23;10.57;;;;;;;;;;5089691;28;20024;-65
2022/08/26 12:10:34;;;;;;;20.33;11.73;;;;;;;;;;5090869;28;20393;-65
2022/08/26 12:13:00;;;;;;;21.05;9.30;;;;;;;;;;5070862;28;20013;-65
2022/08/26 12:15:27;;;;;;;19.77;9.75;;;;;;;;;;5085535;28;20032;-65
2022/08/26 12:17:52;;;;;;;18.05;9.90;;;;;;;;;;5092822;28;20055;-65
2022/08/26 12:20:28;;;;;;;22.48;10.65;;;;;;;;;;5094686;28;20089;-65
2022/08/26 12:22:55;;;;;;;18.02;10.40;;;;;;;;;;5092428;28;20472;-65
2022/08/26 12:25:22;;;;;;;19.27;9.70;;;;;;;;;;5092731;28;20016;-65
2022/08/26 12:27:47;;;;;;;21.30;11.00;;;;;;;;;;5094482;28;20099;-65
2022/08/26 12:30:15;;;;;;;17.05;9.30;;;;;;;;;;5094298;28;20358;-65
2022/08/26 12:32:43;;;;;;;17.65;8.68;;;;;;;;;;5093159;28;20016;-65
2022/08/26 12:35:09;;;;;;;17.20;8.38;;;;;;;;;;5094338;28;20353;-64
2022/08/26 12:37:36;;;;;;;15.48;9.02;;;;;;;;;;5094106;28;20020;-65
2022/08/26 12:40:20;;;;;;;18.20;9.95;;;;;;;;;;5094316;28;20541;-65
2022/08/26 12:42:45;;;;;;;17.60;9.52;;;;;;;;;;5092940;28;20034;-64
2022/08/26 12:45:11;;;;;;;17.37;8.53;;;;;;;;;;5094477;28;20357;-65
2022/08/26 12:47:41;;;;;;;15.93;8.90;;;;;;;;;;5094125;28;20610;-65
2022/08/26 12:50:06;;;;;;;13.30;8.38;;;;;;;;;;5092551;28;20266;-64
2022/08/26 12:52:33;;;;;;;18.98;8.98;;;;;;;;;;5092174;28;20035;-65
2022/08/26 12:55:01;;;;;;;18.80;9.55;;;;;;;;;;5092733;28;20016;-65
2022/08/26 12:57:28;;;;;;;17.55;9.77;;;;;;;;;;5093804;28;20053;-65
2022/08/26 13:00:13;;;;;;;15.77;8.45;;;;;;;;;;5093757;28;20037;-64
2022/08/26 13:02:38;;;;;;;16.00;9.20;;;;;;;;;;5091584;28;20034;-65
2022/08/26 13:05:04;;;;;;;17.65;9.00;;;;;;;;;;5093441;28;20028;-64
2022/08/26 13:07:29;;;;;;;16.70;8.60;;;;;;;;;;5093689;28;20023;-65
2022/08/26 13:09:56;;;;;;;20.75;9.13;;;;;;;;;;5093471;28;20487;-65
2022/08/26 13:12:32;;;;;;;18.70;9.40;;;;;;;;;;5091523;28;20024;-64
2022/08/26 13:14:58;;;;;;;21.70;9.63;;;;;;;;;;5093837;28;20472;-65
2022/08/26 13:17:24;;;;;;;18.00;10.18;;;;;;;;;;5089871;28;20020;-65
2022/08/26 13:19:50;;;;;;;18.38;9.55;;;;;;;;;;5073479;28;20025;-65
2022/08/26 13:22:17;;;;;;;16.83;9.85;;;;;;;;;;5073696;28;20704;-65
2022/08/26 13:24:43;;;;;;;20.80;9.30;;;;;;;;;;5093599;28;20024;-65
2022/08/26 13:27:10;;;;;;;17.55;9.88;;;;;;;;;;5092456;28;20462;-65
2022/08/26 13:29:35;;;;;;;15.93;8.77;;;;;;;;;;5093066;28;20020;-64
2022/08/26 13:32:00;;;;;;;16.52;9.32;;;;;;;;;;5091514;28;20138;-65
2022/08/26 13:34:26;;;;;;;17.95;9.55;;;;;;;;;;5091086;28;20028;-65
2022/08/26 13:36:53;;;;;;;17.98;9.43;;;;;;;;;;5085929;28;20448;-65
2022/08/26 13:39:18;;;;;;;19.17;8.95;;;;;;;;;;5080920;28;20087;-64
2022/08/26 13:41:44;;;;;;;18.80;9.45;;;;;;;;;;5081874;28;20051;-64
2022/08/26 13:44:10;;;;;;;22.63;9.68;;;;;;;;;;5088587;28;20024;-64
2022/08/26 13:46:35;;;;;;;19.92;9.32;;;;;;;;;;5085537;28;20360;-64
2022/08/26 13:49:00;;;;;;;16.85;8.77;;;;;;;;;;5084528;28;20038;-64
2022/08/26 13:51:26;;;;;;;20.67;8.85;;;;;;;;;;5087306;28;20028;-64
2022/08/26 13:53:52;;;;;;;16.85;9.13;;;;;;;;;;5086328;28;20110;-64
2022/08/26 13:56:18;;;;;;;18.92;8.95;;;;;;;;;;5089008;28;20056;-64
2022/08/26 13:58:43;;;;;;;19.30;9.38;;;;;;;;;;5084922;28;20456;-64
2022/08/26 14:01:09;;;;;;;18.08;9.40;;;;;;;;;;5088919;28;20541;-64
2022/08/26 14:03:34;;;;;;;17.75;9.82;;;;;;;;;;5086754;28;20028;-64
2022/08/26 14:06:00;;;;;;;18.35;9.48;;;;;;;;;;5088241;28;20046;-64
2022/08/26 14:08:25;;;;;;;20.08;8.80;;;;;;;;;;5079299;28;20035;-64
2022/08/26 14:10:51;;;;;;;18.30;9.05;;;;;;;;;;5085955;28;20518;-64
2022/08/26 14:13:17;;;;;;;18.33;8.82;;;;;;;;;;5087151;28;20020;-64
2022/08/26 14:15:42;;;;;;;23.48;8.43;;;;;;;;;;5087541;28;20127;-64
2022/08/26 14:18:08;;;;;;;17.13;8.75;;;;;;;;;;5081040;28;20036;-64
2022/08/26 14:20:34;;;;;;;18.67;8.82;;;;;;;;;;5087823;28;20099;-64
2022/08/26 14:23:00;;;;;;;20.17;9.70;;;;;;;;;;5086967;28;20038;-64
2022/08/26 14:25:26;;;;;;;20.05;8.60;;;;;;;;;;5081561;28;20028;-64
2022/08/26 14:27:55;;;;;;;17.50;8.05;;;;;;;;;;5083596;28;20503;-64
2022/08/26 14:30:20;;;;;;;22.38;11.43;;;;;;;;;;5085380;28;20472;-64
2022/08/26 14:32:48;;;;;;;15.82;8.32;;;;;;;;;;5079311;28;20089;-64
2022/08/26 14:35:15;;;;;;;15.85;7.65;;;;;;;;;;5088318;28;20099;-64